sensor_id;sensor_type;location;lat;lon;timestamp;temperature;humidity
12446;DHT22;6287;50.984;7.022;2024-02-21T00:01:17;9.60;99.90
12446;DHT22;6287;50.984;7.022;2024-02-21T00:03:43;9.60;99.90
12446;DHT22;6287;50.984;7.022;2024-02-21T00:06:11;9.60;99.90
12446;DHT22;6287;50.984;7.022;2024-02-21T00:11:03;9.70;99.90
12446;DHT22;6287;50.984;7.022;2024-02-21T00:13:29;9.70;99.90
12446;DHT22;6287;50.984;7.022;2024-02-21T00:15:57;9.70;99.90
12446;DHT22;6287;50.984;7.022;2024-02-21T00:18:25;9.70;99.90
12446;DHT22;6287;50.984;7.022;2024-02-21T00:20:53;9.70;99.90
12446;DHT22;6287;50.984;7.022;2024-02-21T00:23:19;9.70;99.90
12446;DHT22;6287;50.984;7.022;2024-02-21T00:25:45;9.70;99.90
12446;DHT22;6287;50.984;7.022;2024-02-21T00:28:13;9.70;99.90
12446;DHT22;6287;50.984;7.022;2024-02-21T00:33:05;9.70;99.90
12446;DHT22;6287;50.984;7.022;2024-02-21T00:35:33;9.70;99.90
12446;DHT22;6287;50.984;7.022;2024-02-21T00:40:25;9.70;99.90
12446;DHT22;6287;50.984;7.022;2024-02-21T00:42:53;9.70;99.90
12446;DHT22;6287;50.984;7.022;2024-02-21T00:47:47;9.70;99.90
12446;DHT22;6287;50.984;7.022;2024-02-21T00:50:12;9.70;99.90
12446;DHT22;6287;50.984;7.022;2024-02-21T00:52:41;9.60;99.90
12446;DHT22;6287;50.984;7.022;2024-02-21T00:55:09;9.60;99.90
12446;DHT22;6287;50.984;7.022;2024-02-21T00:57:35;9.50;99.90
12446;DHT22;6287;50.984;7.022;2024-02-21T01:00:04;10.10;99.90
12446;DHT22;6287;50.984;7.022;2024-02-21T01:02:30;9.60;99.90
12446;DHT22;6287;50.984;7.022;2024-02-21T01:04:59;9.60;99.90
12446;DHT22;6287;50.984;7.022;2024-02-21T01:07:25;9.60;99.90
12446;DHT22;6287;50.984;7.022;2024-02-21T01:09:53;9.60;99.90
12446;DHT22;6287;50.984;7.022;2024-02-21T01:12:18;9.60;99.90
12446;DHT22;6287;50.984;7.022;2024-02-21T01:17:15;9.60;99.90
12446;DHT22;6287;50.984;7.022;2024-02-21T01:19:41;9.60;99.90
12446;DHT22;6287;50.984;7.022;2024-02-21T01:22:09;9.60;99.90
12446;DHT22;6287;50.984;7.022;2024-02-21T01:24:34;9.60;99.90
12446;DHT22;6287;50.984;7.022;2024-02-21T01:29:26;9.60;99.90
12446;DHT22;6287;50.984;7.022;2024-02-21T01:31:51;9.60;99.90
12446;DHT22;6287;50.984;7.022;2024-02-21T01:34:17;9.60;99.90
12446;DHT22;6287;50.984;7.022;2024-02-21T01:36:43;9.60;99.90
12446;DHT22;6287;50.984;7.022;2024-02-21T01:39:08;9.50;99.90
12446;DHT22;6287;50.984;7.022;2024-02-21T01:44:10;9.50;99.90
12446;DHT22;6287;50.984;7.022;2024-02-21T01:46:35;9.50;99.90
12446;DHT22;6287;50.984;7.022;2024-02-21T01:49:01;9.50;99.90
12446;DHT22;6287;50.984;7.022;2024-02-21T01:51:27;9.50;99.90
12446;DHT22;6287;50.984;7.022;2024-02-21T01:53:55;9.50;99.90
12446;DHT22;6287;50.984;7.022;2024-02-21T01:56:22;9.50;99.90
12446;DHT22;6287;50.984;7.022;2024-02-21T01:58:48;9.50;99.90
12446;DHT22;6287;50.984;7.022;2024-02-21T02:01:18;9.50;99.90
12446;DHT22;6287;50.984;7.022;2024-02-21T02:03:49;9.50;99.90
12446;DHT22;6287;50.984;7.022;2024-02-21T02:06:17;9.50;99.90
12446;DHT22;6287;50.984;7.022;2024-02-21T02:08:45;9.50;99.90
12446;DHT22;6287;50.984;7.022;2024-02-21T02:11:12;9.50;99.90
12446;DHT22;6287;50.984;7.022;2024-02-21T02:13:38;9.50;99.90
12446;DHT22;6287;50.984;7.022;2024-02-21T02:16:04;9.50;99.90
12446;DHT22;6287;50.984;7.022;2024-02-21T02:18:30;9.40;99.90
12446;DHT22;6287;50.984;7.022;2024-02-21T02:23:29;9.50;99.90
12446;DHT22;6287;50.984;7.022;2024-02-21T02:25:55;9.50;99.90
12446;DHT22;6287;50.984;7.022;2024-02-21T02:28:23;9.50;99.90
12446;DHT22;6287;50.984;7.022;2024-02-21T02:30:49;9.50;99.90
12446;DHT22;6287;50.984;7.022;2024-02-21T02:33:15;9.50;99.90
12446;DHT22;6287;50.984;7.022;2024-02-21T02:35:43;9.50;99.90
12446;DHT22;6287;50.984;7.022;2024-02-21T02:38:09;9.50;99.90
12446;DHT22;6287;50.984;7.022;2024-02-21T02:40:36;9.50;99.90
12446;DHT22;6287;50.984;7.022;2024-02-21T02:43:01;9.50;99.90
12446;DHT22;6287;50.984;7.022;2024-02-21T02:47:58;9.50;99.90
12446;DHT22;6287;50.984;7.022;2024-02-21T02:50:25;9.40;99.90
12446;DHT22;6287;50.984;7.022;2024-02-21T02:55:23;9.40;99.90
12446;DHT22;6287;50.984;7.022;2024-02-21T02:57:50;9.40;99.90
12446;DHT22;6287;50.984;7.022;2024-02-21T03:00:16;9.40;99.90
12446;DHT22;6287;50.984;7.022;2024-02-21T03:02:48;9.40;99.90
12446;DHT22;6287;50.984;7.022;2024-02-21T03:05:20;9.40;99.90
12446;DHT22;6287;50.984;7.022;2024-02-21T03:07:47;9.40;99.90
12446;DHT22;6287;50.984;7.022;2024-02-21T03:10:14;9.40;99.90
12446;DHT22;6287;50.984;7.022;2024-02-21T03:12:42;9.40;99.90
12446;DHT22;6287;50.984;7.022;2024-02-21T03:20:03;9.40;99.90
12446;DHT22;6287;50.984;7.022;2024-02-21T03:22:37;9.40;99.90
12446;DHT22;6287;50.984;7.022;2024-02-21T03:25:05;9.40;99.90
12446;DHT22;6287;50.984;7.022;2024-02-21T03:27:31;9.40;99.90
12446;DHT22;6287;50.984;7.022;2024-02-21T03:29:59;9.40;99.90
12446;DHT22;6287;50.984;7.022;2024-02-21T03:32:25;9.40;99.90
12446;DHT22;6287;50.984;7.022;2024-02-21T03:34:53;9.30;99.90
12446;DHT22;6287;50.984;7.022;2024-02-21T03:37:20;9.30;99.90
12446;DHT22;6287;50.984;7.022;2024-02-21T03:39:46;9.30;99.90
12446;DHT22;6287;50.984;7.022;2024-02-21T03:42:11;9.30;99.90
12446;DHT22;6287;50.984;7.022;2024-02-21T03:44:40;9.30;99.90
12446;DHT22;6287;50.984;7.022;2024-02-21T03:47:05;9.40;99.90
12446;DHT22;6287;50.984;7.022;2024-02-21T03:49:31;9.20;99.90
12446;DHT22;6287;50.984;7.022;2024-02-21T03:51:56;9.10;99.90
12446;DHT22;6287;50.984;7.022;2024-02-21T03:54:27;9.20;99.90
12446;DHT22;6287;50.984;7.022;2024-02-21T03:56:54;9.20;99.90
12446;DHT22;6287;50.984;7.022;2024-02-21T03:59:23;9.10;99.90
12446;DHT22;6287;50.984;7.022;2024-02-21T04:01:52;9.10;99.90
12446;DHT22;6287;50.984;7.022;2024-02-21T04:06:50;9.20;99.90
12446;DHT22;6287;50.984;7.022;2024-02-21T04:09:18;9.20;99.90
12446;DHT22;6287;50.984;7.022;2024-02-21T04:11:49;9.20;99.90
12446;DHT22;6287;50.984;7.022;2024-02-21T04:14:14;9.20;99.90
12446;DHT22;6287;50.984;7.022;2024-02-21T04:16:40;9.20;99.90
12446;DHT22;6287;50.984;7.022;2024-02-21T04:19:06;9.20;99.90
12446;DHT22;6287;50.984;7.022;2024-02-21T04:21:31;9.30;99.90
12446;DHT22;6287;50.984;7.022;2024-02-21T04:23:57;9.20;99.90
12446;DHT22;6287;50.984;7.022;2024-02-21T04:26:22;9.20;99.90
12446;DHT22;6287;50.984;7.022;2024-02-21T04:28:48;9.30;99.90
12446;DHT22;6287;50.984;7.022;2024-02-21T04:31:18;9.30;99.90
12446;DHT22;6287;50.984;7.022;2024-02-21T04:33:44;9.30;99.90
12446;DHT22;6287;50.984;7.022;2024-02-21T04:36:12;9.30;99.90
12446;DHT22;6287;50.984;7.022;2024-02-21T04:38:38;9.30;99.90
12446;DHT22;6287;50.984;7.022;2024-02-21T04:41:04;9.20;99.90
12446;DHT22;6287;50.984;7.022;2024-02-21T04:43:32;9.20;99.90
12446;DHT22;6287;50.984;7.022;2024-02-21T04:45:58;9.20;99.90
12446;DHT22;6287;50.984;7.022;2024-02-21T04:48:23;9.20;99.90
12446;DHT22;6287;50.984;7.022;2024-02-21T04:50:49;9.10;99.90
12446;DHT22;6287;50.984;7.022;2024-02-21T04:53:14;9.20;99.90
12446;DHT22;6287;50.984;7.022;2024-02-21T04:55:42;9.10;99.90
12446;DHT22;6287;50.984;7.022;2024-02-21T04:58:10;9.10;99.90
12446;DHT22;6287;50.984;7.022;2024-02-21T05:00:36;9.10;99.90
12446;DHT22;6287;50.984;7.022;2024-02-21T05:03:06;9.10;99.90
12446;DHT22;6287;50.984;7.022;2024-02-21T05:05:34;9.10;99.90
12446;DHT22;6287;50.984;7.022;2024-02-21T05:08:00;9.10;99.90
12446;DHT22;6287;50.984;7.022;2024-02-21T05:10:28;9.10;99.90
12446;DHT22;6287;50.984;7.022;2024-02-21T05:12:54;9.10;99.90
12446;DHT22;6287;50.984;7.022;2024-02-21T05:15:21;9.10;99.90
12446;DHT22;6287;50.984;7.022;2024-02-21T05:17:47;9.10;99.90
12446;DHT22;6287;50.984;7.022;2024-02-21T05:20:15;9.10;99.90
12446;DHT22;6287;50.984;7.022;2024-02-21T05:22:40;9.10;99.90
12446;DHT22;6287;50.984;7.022;2024-02-21T05:25:08;9.10;99.90
12446;DHT22;6287;50.984;7.022;2024-02-21T05:27:37;9.10;99.90
12446;DHT22;6287;50.984;7.022;2024-02-21T05:30:04;9.20;99.90
12446;DHT22;6287;50.984;7.022;2024-02-21T05:32:32;9.10;99.90
12446;DHT22;6287;50.984;7.022;2024-02-21T05:37:26;9.10;99.90
12446;DHT22;6287;50.984;7.022;2024-02-21T05:39:52;9.10;99.90
12446;DHT22;6287;50.984;7.022;2024-02-21T05:42:17;9.10;99.90
12446;DHT22;6287;50.984;7.022;2024-02-21T05:44:45;9.10;99.90
12446;DHT22;6287;50.984;7.022;2024-02-21T05:47:11;9.10;99.90
12446;DHT22;6287;50.984;7.022;2024-02-21T05:49:40;9.50;99.90
12446;DHT22;6287;50.984;7.022;2024-02-21T05:52:06;9.10;99.90
12446;DHT22;6287;50.984;7.022;2024-02-21T05:54:34;9.20;99.90
12446;DHT22;6287;50.984;7.022;2024-02-21T05:56:59;9.20;99.90
12446;DHT22;6287;50.984;7.022;2024-02-21T05:59:25;9.10;99.90
12446;DHT22;6287;50.984;7.022;2024-02-21T06:01:57;9.20;99.90
12446;DHT22;6287;50.984;7.022;2024-02-21T06:04:25;9.20;99.90
12446;DHT22;6287;50.984;7.022;2024-02-21T06:06:53;9.20;99.90
12446;DHT22;6287;50.984;7.022;2024-02-21T06:09:21;9.20;99.90
12446;DHT22;6287;50.984;7.022;2024-02-21T06:11:46;9.20;99.90
12446;DHT22;6287;50.984;7.022;2024-02-21T06:14:16;9.20;99.90
12446;DHT22;6287;50.984;7.022;2024-02-21T06:16:43;9.20;99.90
12446;DHT22;6287;50.984;7.022;2024-02-21T06:19:09;9.20;99.90
12446;DHT22;6287;50.984;7.022;2024-02-21T06:21:36;9.20;99.90
12446;DHT22;6287;50.984;7.022;2024-02-21T06:24:02;9.20;99.90
12446;DHT22;6287;50.984;7.022;2024-02-21T06:26:28;9.20;99.90
12446;DHT22;6287;50.984;7.022;2024-02-21T06:28:56;9.20;99.90
12446;DHT22;6287;50.984;7.022;2024-02-21T06:31:24;9.30;99.90
12446;DHT22;6287;50.984;7.022;2024-02-21T06:33:53;9.30;99.90
12446;DHT22;6287;50.984;7.022;2024-02-21T06:36:20;9.30;99.90
12446;DHT22;6287;50.984;7.022;2024-02-21T06:38:46;9.30;99.90
12446;DHT22;6287;50.984;7.022;2024-02-21T06:41:16;9.30;99.90
12446;DHT22;6287;50.984;7.022;2024-02-21T06:43:42;9.30;99.90
12446;DHT22;6287;50.984;7.022;2024-02-21T06:46:07;9.30;99.90
12446;DHT22;6287;50.984;7.022;2024-02-21T06:48:33;9.30;99.90
12446;DHT22;6287;50.984;7.022;2024-02-21T06:50:58;9.30;99.90
12446;DHT22;6287;50.984;7.022;2024-02-21T06:53:24;9.20;99.90
12446;DHT22;6287;50.984;7.022;2024-02-21T06:55:50;9.30;99.90
12446;DHT22;6287;50.984;7.022;2024-02-21T06:58:17;9.40;99.90
12446;DHT22;6287;50.984;7.022;2024-02-21T07:00:43;9.30;99.90
12446;DHT22;6287;50.984;7.022;2024-02-21T07:03:08;9.30;99.90
12446;DHT22;6287;50.984;7.022;2024-02-21T07:05:39;9.30;99.90
12446;DHT22;6287;50.984;7.022;2024-02-21T07:08:07;9.30;99.90
12446;DHT22;6287;50.984;7.022;2024-02-21T07:10:32;9.30;99.90
12446;DHT22;6287;50.984;7.022;2024-02-21T07:13:00;9.40;99.90
12446;DHT22;6287;50.984;7.022;2024-02-21T07:15:26;9.30;99.90
12446;DHT22;6287;50.984;7.022;2024-02-21T07:17:52;9.30;99.90
12446;DHT22;6287;50.984;7.022;2024-02-21T07:20:20;9.30;99.90
12446;DHT22;6287;50.984;7.022;2024-02-21T07:22:48;9.30;99.90
12446;DHT22;6287;50.984;7.022;2024-02-21T07:25:14;9.40;99.90
12446;DHT22;6287;50.984;7.022;2024-02-21T07:27:40;9.30;99.90
12446;DHT22;6287;50.984;7.022;2024-02-21T07:30:08;9.30;99.90
12446;DHT22;6287;50.984;7.022;2024-02-21T07:32:36;9.30;99.90
12446;DHT22;6287;50.984;7.022;2024-02-21T07:35:04;9.20;99.90
12446;DHT22;6287;50.984;7.022;2024-02-21T07:37:31;9.30;99.90
12446;DHT22;6287;50.984;7.022;2024-02-21T07:39:56;9.30;99.90
12446;DHT22;6287;50.984;7.022;2024-02-21T07:42:22;9.30;99.90
12446;DHT22;6287;50.984;7.022;2024-02-21T07:44:47;9.40;99.90
12446;DHT22;6287;50.984;7.022;2024-02-21T07:47:15;9.30;99.90
12446;DHT22;6287;50.984;7.022;2024-02-21T07:49:43;9.30;99.90
12446;DHT22;6287;50.984;7.022;2024-02-21T07:52:09;9.30;99.90
12446;DHT22;6287;50.984;7.022;2024-02-21T07:54:35;9.30;99.90
12446;DHT22;6287;50.984;7.022;2024-02-21T07:57:03;9.30;99.90
12446;DHT22;6287;50.984;7.022;2024-02-21T07:59:34;9.30;99.90
12446;DHT22;6287;50.984;7.022;2024-02-21T08:01:59;9.50;99.90
12446;DHT22;6287;50.984;7.022;2024-02-21T08:04:32;9.30;99.90
12446;DHT22;6287;50.984;7.022;2024-02-21T08:07:00;9.20;99.90
12446;DHT22;6287;50.984;7.022;2024-02-21T08:09:29;9.20;99.90
12446;DHT22;6287;50.984;7.022;2024-02-21T08:11:57;9.20;99.90
12446;DHT22;6287;50.984;7.022;2024-02-21T08:14:23;9.20;99.90
12446;DHT22;6287;50.984;7.022;2024-02-21T08:16:53;9.30;99.90
12446;DHT22;6287;50.984;7.022;2024-02-21T08:19:24;9.30;99.90
12446;DHT22;6287;50.984;7.022;2024-02-21T08:21:52;9.30;99.90
12446;DHT22;6287;50.984;7.022;2024-02-21T08:24:21;9.40;99.90
12446;DHT22;6287;50.984;7.022;2024-02-21T08:26:48;9.30;99.90
12446;DHT22;6287;50.984;7.022;2024-02-21T08:29:13;9.30;99.90
12446;DHT22;6287;50.984;7.022;2024-02-21T08:31:39;9.30;99.90
12446;DHT22;6287;50.984;7.022;2024-02-21T08:34:05;9.30;99.90
12446;DHT22;6287;50.984;7.022;2024-02-21T08:36:34;9.30;99.90
12446;DHT22;6287;50.984;7.022;2024-02-21T08:39:07;9.40;99.90
12446;DHT22;6287;50.984;7.022;2024-02-21T08:41:35;9.40;99.90
12446;DHT22;6287;50.984;7.022;2024-02-21T08:44:03;9.40;99.90
12446;DHT22;6287;50.984;7.022;2024-02-21T08:46:29;9.40;99.90
12446;DHT22;6287;50.984;7.022;2024-02-21T08:48:54;9.50;99.90
12446;DHT22;6287;50.984;7.022;2024-02-21T08:51:20;9.40;99.90
12446;DHT22;6287;50.984;7.022;2024-02-21T08:53:47;9.50;99.90
12446;DHT22;6287;50.984;7.022;2024-02-21T08:56:16;9.40;99.90
12446;DHT22;6287;50.984;7.022;2024-02-21T08:58:45;9.50;99.90
12446;DHT22;6287;50.984;7.022;2024-02-21T09:01:10;9.50;99.90
12446;DHT22;6287;50.984;7.022;2024-02-21T09:03:39;9.70;99.90
12446;DHT22;6287;50.984;7.022;2024-02-21T09:06:10;9.60;99.90
12446;DHT22;6287;50.984;7.022;2024-02-21T09:08:38;9.60;99.90
12446;DHT22;6287;50.984;7.022;2024-02-21T09:11:06;9.70;99.90
12446;DHT22;6287;50.984;7.022;2024-02-21T09:13:34;9.80;99.90
12446;DHT22;6287;50.984;7.022;2024-02-21T09:16:02;9.80;99.90
12446;DHT22;6287;50.984;7.022;2024-02-21T09:18:28;10.00;99.90
12446;DHT22;6287;50.984;7.022;2024-02-21T09:20:57;10.10;99.90
12446;DHT22;6287;50.984;7.022;2024-02-21T09:23:28;10.20;99.90
12446;DHT22;6287;50.984;7.022;2024-02-21T09:25:56;10.30;99.90
12446;DHT22;6287;50.984;7.022;2024-02-21T09:28:24;10.40;99.90
12446;DHT22;6287;50.984;7.022;2024-02-21T09:30:52;10.50;99.90
12446;DHT22;6287;50.984;7.022;2024-02-21T09:33:20;10.60;99.90
12446;DHT22;6287;50.984;7.022;2024-02-21T09:35:46;10.70;99.90
12446;DHT22;6287;50.984;7.022;2024-02-21T09:38:14;10.60;99.90
12446;DHT22;6287;50.984;7.022;2024-02-21T09:40:39;10.60;99.90
12446;DHT22;6287;50.984;7.022;2024-02-21T09:43:07;10.70;99.90
12446;DHT22;6287;50.984;7.022;2024-02-21T09:45:35;10.70;99.90
12446;DHT22;6287;50.984;7.022;2024-02-21T09:50:32;10.70;99.90
12446;DHT22;6287;50.984;7.022;2024-02-21T09:53:00;10.70;99.90
12446;DHT22;6287;50.984;7.022;2024-02-21T09:55:29;10.70;99.90
12446;DHT22;6287;50.984;7.022;2024-02-21T09:57:58;10.70;99.90
12446;DHT22;6287;50.984;7.022;2024-02-21T10:00:27;10.80;99.90
12446;DHT22;6287;50.984;7.022;2024-02-21T10:02:53;10.90;99.90
12446;DHT22;6287;50.984;7.022;2024-02-21T10:05:19;10.90;99.90
12446;DHT22;6287;50.984;7.022;2024-02-21T10:07:45;11.00;99.90
12446;DHT22;6287;50.984;7.022;2024-02-21T10:10:13;11.00;99.90
12446;DHT22;6287;50.984;7.022;2024-02-21T10:15:37;11.00;99.90
12446;DHT22;6287;50.984;7.022;2024-02-21T10:18:06;11.10;99.90
12446;DHT22;6287;50.984;7.022;2024-02-21T10:20:34;11.10;99.90
12446;DHT22;6287;50.984;7.022;2024-02-21T10:23:04;11.20;99.90
12446;DHT22;6287;50.984;7.022;2024-02-21T10:25:39;11.30;99.90
12446;DHT22;6287;50.984;7.022;2024-02-21T10:28:07;11.40;99.90
12446;DHT22;6287;50.984;7.022;2024-02-21T10:30:35;11.50;99.90
12446;DHT22;6287;50.984;7.022;2024-02-21T10:33:05;11.50;99.90
12446;DHT22;6287;50.984;7.022;2024-02-21T10:35:33;11.50;99.90
12446;DHT22;6287;50.984;7.022;2024-02-21T10:38:01;11.60;99.90
12446;DHT22;6287;50.984;7.022;2024-02-21T10:40:29;11.60;99.90
12446;DHT22;6287;50.984;7.022;2024-02-21T10:42:57;11.60;99.90
12446;DHT22;6287;50.984;7.022;2024-02-21T10:45:36;11.70;99.90
12446;DHT22;6287;50.984;7.022;2024-02-21T10:48:10;11.80;99.90
12446;DHT22;6287;50.984;7.022;2024-02-21T10:50:56;11.80;99.90
12446;DHT22;6287;50.984;7.022;2024-02-21T10:56:33;11.90;99.90
12446;DHT22;6287;50.984;7.022;2024-02-21T10:59:07;12.00;99.90
12446;DHT22;6287;50.984;7.022;2024-02-21T11:01:35;12.00;99.90
12446;DHT22;6287;50.984;7.022;2024-02-21T11:04:08;12.00;99.90
12446;DHT22;6287;50.984;7.022;2024-02-21T11:06:38;12.00;99.90
12446;DHT22;6287;50.984;7.022;2024-02-21T11:09:05;12.10;99.90
12446;DHT22;6287;50.984;7.022;2024-02-21T11:14:19;12.40;99.90
12446;DHT22;6287;50.984;7.022;2024-02-21T11:16:47;12.60;99.90
12446;DHT22;6287;50.984;7.022;2024-02-21T11:19:25;12.70;99.90
12446;DHT22;6287;50.984;7.022;2024-02-21T11:21:51;12.90;99.90
12446;DHT22;6287;50.984;7.022;2024-02-21T11:24:33;12.90;99.90
12446;DHT22;6287;50.984;7.022;2024-02-21T11:27:21;13.00;99.90
12446;DHT22;6287;50.984;7.022;2024-02-21T11:29:57;13.00;99.90
12446;DHT22;6287;50.984;7.022;2024-02-21T11:32:24;13.10;99.90
12446;DHT22;6287;50.984;7.022;2024-02-21T11:34:57;13.10;99.90
12446;DHT22;6287;50.984;7.022;2024-02-21T11:37:33;13.00;99.90
12446;DHT22;6287;50.984;7.022;2024-02-21T11:40:03;13.00;99.90
12446;DHT22;6287;50.984;7.022;2024-02-21T11:42:29;13.00;99.90
12446;DHT22;6287;50.984;7.022;2024-02-21T11:44:56;12.90;99.90
12446;DHT22;6287;50.984;7.022;2024-02-21T11:47:22;12.80;99.90
12446;DHT22;6287;50.984;7.022;2024-02-21T11:49:50;12.70;99.90
12446;DHT22;6287;50.984;7.022;2024-02-21T11:52:23;12.80;99.90
12446;DHT22;6287;50.984;7.022;2024-02-21T11:54:51;12.90;99.90
12446;DHT22;6287;50.984;7.022;2024-02-21T11:57:20;13.00;99.90
12446;DHT22;6287;50.984;7.022;2024-02-21T11:59:48;13.00;99.90
12446;DHT22;6287;50.984;7.022;2024-02-21T12:02:17;13.00;99.90
12446;DHT22;6287;50.984;7.022;2024-02-21T12:04:47;13.00;99.90
12446;DHT22;6287;50.984;7.022;2024-02-21T12:07:17;12.80;99.90
12446;DHT22;6287;50.984;7.022;2024-02-21T12:09:43;12.70;99.90
12446;DHT22;6287;50.984;7.022;2024-02-21T12:12:08;12.70;99.90
12446;DHT22;6287;50.984;7.022;2024-02-21T12:14:37;12.80;99.90
12446;DHT22;6287;50.984;7.022;2024-02-21T12:17:03;12.70;99.90
12446;DHT22;6287;50.984;7.022;2024-02-21T12:19:33;12.60;99.90
12446;DHT22;6287;50.984;7.022;2024-02-21T12:22:03;12.70;99.90
12446;DHT22;6287;50.984;7.022;2024-02-21T12:24:31;12.70;99.90
12446;DHT22;6287;50.984;7.022;2024-02-21T12:26:57;12.60;99.90
12446;DHT22;6287;50.984;7.022;2024-02-21T12:29:24;12.50;99.90
12446;DHT22;6287;50.984;7.022;2024-02-21T12:31:54;12.50;99.90
12446;DHT22;6287;50.984;7.022;2024-02-21T12:34:23;12.40;99.90
12446;DHT22;6287;50.984;7.022;2024-02-21T12:36:49;12.40;99.90
12446;DHT22;6287;50.984;7.022;2024-02-21T12:39:15;12.30;99.90
12446;DHT22;6287;50.984;7.022;2024-02-21T12:41:42;12.40;99.90
12446;DHT22;6287;50.984;7.022;2024-02-21T12:44:09;12.40;99.90
12446;DHT22;6287;50.984;7.022;2024-02-21T12:46:38;12.60;99.90
12446;DHT22;6287;50.984;7.022;2024-02-21T12:49:07;12.70;99.90
12446;DHT22;6287;50.984;7.022;2024-02-21T12:51:34;12.90;99.90
12446;DHT22;6287;50.984;7.022;2024-02-21T12:54:00;13.00;99.90
12446;DHT22;6287;50.984;7.022;2024-02-21T12:56:30;13.10;99.90
12446;DHT22;6287;50.984;7.022;2024-02-21T12:58:57;13.20;99.90
12446;DHT22;6287;50.984;7.022;2024-02-21T13:01:22;13.10;99.90
12446;DHT22;6287;50.984;7.022;2024-02-21T13:03:48;13.10;99.90
12446;DHT22;6287;50.984;7.022;2024-02-21T13:06:14;13.20;99.90
12446;DHT22;6287;50.984;7.022;2024-02-21T13:08:40;13.20;99.90
12446;DHT22;6287;50.984;7.022;2024-02-21T13:11:06;13.30;99.90
12446;DHT22;6287;50.984;7.022;2024-02-21T13:13:32;13.30;99.90
12446;DHT22;6287;50.984;7.022;2024-02-21T13:15:58;13.20;99.90
12446;DHT22;6287;50.984;7.022;2024-02-21T13:18:26;13.30;99.90
12446;DHT22;6287;50.984;7.022;2024-02-21T13:20:52;13.40;99.90
12446;DHT22;6287;50.984;7.022;2024-02-21T13:23:20;13.60;99.90
12446;DHT22;6287;50.984;7.022;2024-02-21T13:25:47;13.80;99.90
12446;DHT22;6287;50.984;7.022;2024-02-21T13:28:16;14.00;99.90
12446;DHT22;6287;50.984;7.022;2024-02-21T13:30:44;13.90;99.90
12446;DHT22;6287;50.984;7.022;2024-02-21T13:33:13;13.90;99.90
12446;DHT22;6287;50.984;7.022;2024-02-21T13:35:41;13.90;99.90
12446;DHT22;6287;50.984;7.022;2024-02-21T13:38:06;13.90;99.90
12446;DHT22;6287;50.984;7.022;2024-02-21T13:40:33;14.00;99.90
12446;DHT22;6287;50.984;7.022;2024-02-21T13:42:59;13.90;99.90
12446;DHT22;6287;50.984;7.022;2024-02-21T13:45:25;13.80;99.90
12446;DHT22;6287;50.984;7.022;2024-02-21T13:47:50;13.70;99.90
12446;DHT22;6287;50.984;7.022;2024-02-21T13:50:16;13.60;99.90
12446;DHT22;6287;50.984;7.022;2024-02-21T13:52:43;13.40;99.90
12446;DHT22;6287;50.984;7.022;2024-02-21T13:55:08;13.20;99.90
12446;DHT22;6287;50.984;7.022;2024-02-21T13:57:37;13.10;99.90
12446;DHT22;6287;50.984;7.022;2024-02-21T14:00:05;12.90;99.90
12446;DHT22;6287;50.984;7.022;2024-02-21T14:02:33;12.80;99.90
12446;DHT22;6287;50.984;7.022;2024-02-21T14:05:01;12.80;99.90
12446;DHT22;6287;50.984;7.022;2024-02-21T14:07:30;12.70;99.90
12446;DHT22;6287;50.984;7.022;2024-02-21T14:09:55;12.60;99.90
12446;DHT22;6287;50.984;7.022;2024-02-21T14:12:23;12.60;99.90
12446;DHT22;6287;50.984;7.022;2024-02-21T14:14:51;12.60;99.90
12446;DHT22;6287;50.984;7.022;2024-02-21T14:17:20;12.70;99.90
12446;DHT22;6287;50.984;7.022;2024-02-21T14:19:48;12.60;99.90
12446;DHT22;6287;50.984;7.022;2024-02-21T14:22:13;12.60;99.90
12446;DHT22;6287;50.984;7.022;2024-02-21T14:24:39;12.50;99.90
12446;DHT22;6287;50.984;7.022;2024-02-21T14:27:04;12.50;99.90
12446;DHT22;6287;50.984;7.022;2024-02-21T14:29:36;12.50;99.90
12446;DHT22;6287;50.984;7.022;2024-02-21T14:32:04;12.50;99.90
12446;DHT22;6287;50.984;7.022;2024-02-21T14:34:32;12.50;99.90
12446;DHT22;6287;50.984;7.022;2024-02-21T14:36:58;12.50;99.90
12446;DHT22;6287;50.984;7.022;2024-02-21T14:39:23;12.50;99.90
12446;DHT22;6287;50.984;7.022;2024-02-21T14:41:51;12.60;99.90
12446;DHT22;6287;50.984;7.022;2024-02-21T14:44:17;12.50;99.90
12446;DHT22;6287;50.984;7.022;2024-02-21T14:46:45;12.50;99.90
12446;DHT22;6287;50.984;7.022;2024-02-21T14:49:13;12.50;99.90
12446;DHT22;6287;50.984;7.022;2024-02-21T14:51:41;12.60;99.90
12446;DHT22;6287;50.984;7.022;2024-02-21T14:54:07;12.50;99.90
12446;DHT22;6287;50.984;7.022;2024-02-21T14:56:33;12.40;99.90
12446;DHT22;6287;50.984;7.022;2024-02-21T14:59:02;12.40;99.90
12446;DHT22;6287;50.984;7.022;2024-02-21T15:01:30;12.30;99.90
12446;DHT22;6287;50.984;7.022;2024-02-21T15:03:58;12.20;99.90
12446;DHT22;6287;50.984;7.022;2024-02-21T15:06:23;12.30;99.90
12446;DHT22;6287;50.984;7.022;2024-02-21T15:08:49;12.30;99.90
12446;DHT22;6287;50.984;7.022;2024-02-21T15:11:17;12.30;99.90
12446;DHT22;6287;50.984;7.022;2024-02-21T15:13:43;12.30;99.90
12446;DHT22;6287;50.984;7.022;2024-02-21T15:16:11;12.20;99.90
12446;DHT22;6287;50.984;7.022;2024-02-21T15:18:37;12.30;99.90
12446;DHT22;6287;50.984;7.022;2024-02-21T15:21:04;12.30;99.90
12446;DHT22;6287;50.984;7.022;2024-02-21T15:23:32;12.30;99.90
12446;DHT22;6287;50.984;7.022;2024-02-21T15:25:58;12.20;99.90
12446;DHT22;6287;50.984;7.022;2024-02-21T15:28:25;12.20;99.90
12446;DHT22;6287;50.984;7.022;2024-02-21T15:30:50;12.20;99.90
12446;DHT22;6287;50.984;7.022;2024-02-21T15:33:18;12.10;99.90
12446;DHT22;6287;50.984;7.022;2024-02-21T15:35:43;12.10;99.90
12446;DHT22;6287;50.984;7.022;2024-02-21T15:38:09;12.00;99.90
12446;DHT22;6287;50.984;7.022;2024-02-21T15:40:35;11.90;99.90
12446;DHT22;6287;50.984;7.022;2024-02-21T15:43:02;11.90;99.90
12446;DHT22;6287;50.984;7.022;2024-02-21T15:45:30;11.90;99.90
12446;DHT22;6287;50.984;7.022;2024-02-21T15:47:58;11.90;99.90
12446;DHT22;6287;50.984;7.022;2024-02-21T15:50:26;11.90;99.90
12446;DHT22;6287;50.984;7.022;2024-02-21T15:52:57;11.90;99.90
12446;DHT22;6287;50.984;7.022;2024-02-21T15:55:29;11.80;99.90
12446;DHT22;6287;50.984;7.022;2024-02-21T15:57:55;11.80;99.90
12446;DHT22;6287;50.984;7.022;2024-02-21T16:00:20;11.80;99.90
12446;DHT22;6287;50.984;7.022;2024-02-21T16:02:52;11.80;99.90
12446;DHT22;6287;50.984;7.022;2024-02-21T16:05:18;11.80;99.90
12446;DHT22;6287;50.984;7.022;2024-02-21T16:07:44;11.70;99.90
12446;DHT22;6287;50.984;7.022;2024-02-21T16:10:09;11.70;99.90
12446;DHT22;6287;50.984;7.022;2024-02-21T16:12:35;11.70;99.90
12446;DHT22;6287;50.984;7.022;2024-02-21T16:15:03;11.70;99.90
12446;DHT22;6287;50.984;7.022;2024-02-21T16:17:31;11.70;99.90
12446;DHT22;6287;50.984;7.022;2024-02-21T16:19:59;11.70;99.90
12446;DHT22;6287;50.984;7.022;2024-02-21T16:22:29;11.70;99.90
12446;DHT22;6287;50.984;7.022;2024-02-21T16:25:01;11.70;99.90
12446;DHT22;6287;50.984;7.022;2024-02-21T16:27:29;11.60;99.90
12446;DHT22;6287;50.984;7.022;2024-02-21T16:29:57;11.60;99.90
12446;DHT22;6287;50.984;7.022;2024-02-21T16:32:26;11.50;99.90
12446;DHT22;6287;50.984;7.022;2024-02-21T16:34:54;11.50;99.90
12446;DHT22;6287;50.984;7.022;2024-02-21T16:37:22;11.40;99.90
12446;DHT22;6287;50.984;7.022;2024-02-21T16:39:50;11.40;99.90
12446;DHT22;6287;50.984;7.022;2024-02-21T16:42:18;11.40;99.90